sensor_id;sensor_type;location;lat;lon;timestamp;pressure;altitude;pressure_sealevel;temperature;humidity
24746;BME280;12845;52.042;6.838;2023-03-11T00:01:38;-18033.81;;;0.24;100.00
24746;BME280;12845;52.042;6.838;2023-03-11T00:04:05;-18033.41;;;0.22;100.00
24746;BME280;12845;52.042;6.838;2023-03-11T00:06:30;-18033.53;;;0.23;100.00
24746;BME280;12845;52.042;6.838;2023-03-11T00:08:56;-18033.28;;;0.22;100.00
24746;BME280;12845;52.042;6.838;2023-03-11T00:11:21;-18033.00;;;0.21;100.00
24746;BME280;12845;52.042;6.838;2023-03-11T00:13:46;-18032.16;;;0.18;100.00
24746;BME280;12845;52.042;6.838;2023-03-11T00:16:12;-18031.47;;;0.15;100.00
24746;BME280;12845;52.042;6.838;2023-03-11T00:18:37;-18031.19;;;0.14;100.00
24746;BME280;12845;52.042;6.838;2023-03-11T00:21:03;-18030.91;;;0.13;100.00
24746;BME280;12845;52.042;6.838;2023-03-11T00:23:28;-18030.34;;;0.11;100.00
24746;BME280;12845;52.042;6.838;2023-03-11T00:25:54;-18030.63;;;0.12;100.00
24746;BME280;12845;52.042;6.838;2023-03-11T00:28:20;-18031.06;;;0.14;100.00
24746;BME280;12845;52.042;6.838;2023-03-11T00:30:49;-18030.50;;;0.12;100.00
24746;BME280;12845;52.042;6.838;2023-03-11T00:33:15;-18031.34;;;0.15;100.00
24746;BME280;12845;52.042;6.838;2023-03-11T00:35:41;-18030.78;;;0.13;100.00
24746;BME280;12845;52.042;6.838;2023-03-11T00:38:11;-18032.03;;;0.17;100.00
24746;BME280;12845;52.042;6.838;2023-03-11T00:40:37;-18032.03;;;0.17;100.00
24746;BME280;12845;52.042;6.838;2023-03-11T00:43:03;-18032.56;;;0.19;100.00
24746;BME280;12845;52.042;6.838;2023-03-11T00:45:29;-18033.00;;;0.21;100.00
24746;BME280;12845;52.042;6.838;2023-03-11T00:47:55;-18032.56;;;0.19;100.00
24746;BME280;12845;52.042;6.838;2023-03-11T00:50:23;-18031.88;;;0.17;100.00
24746;BME280;12845;52.042;6.838;2023-03-11T00:52:49;-18032.72;;;0.20;100.00
24746;BME280;12845;52.042;6.838;2023-03-11T00:55:18;-18033.28;;;0.22;100.00
24746;BME280;12845;52.042;6.838;2023-03-11T00:57:44;-18033.41;;;0.22;100.00
24746;BME280;12845;52.042;6.838;2023-03-11T01:00:19;-18031.88;;;0.17;100.00
24746;BME280;12845;52.042;6.838;2023-03-11T01:02:44;-18030.34;;;0.11;100.00
24746;BME280;12845;52.042;6.838;2023-03-11T01:05:10;-18030.78;;;0.13;100.00
24746;BME280;12845;52.042;6.838;2023-03-11T01:07:36;-18031.47;;;0.15;100.00
24746;BME280;12845;52.042;6.838;2023-03-11T01:10:02;-18030.50;;;0.12;100.00
24746;BME280;12845;52.042;6.838;2023-03-11T01:12:27;-18030.09;;;0.10;100.00
24746;BME280;12845;52.042;6.838;2023-03-11T01:14:53;-18028.84;;;0.06;100.00
24746;BME280;12845;52.042;6.838;2023-03-11T01:17:18;-18027.16;;;-0.01;100.00
24746;BME280;12845;52.042;6.838;2023-03-11T01:19:46;-18027.44;;;0.01;100.00
24746;BME280;12845;52.042;6.838;2023-03-11T01:22:12;-18028.16;;;0.03;100.00
24746;BME280;12845;52.042;6.838;2023-03-11T01:24:37;-18026.75;;;-0.02;100.00
24746;BME280;12845;52.042;6.838;2023-03-11T01:27:02;-18026.19;;;-0.04;100.00
24746;BME280;12845;52.042;6.838;2023-03-11T01:29:28;-18027.16;;;-0.01;100.00
24746;BME280;12845;52.042;6.838;2023-03-11T01:31:53;-18027.03;;;-0.01;100.00
24746;BME280;12845;52.042;6.838;2023-03-11T01:34:19;-18026.75;;;-0.02;100.00
24746;BME280;12845;52.042;6.838;2023-03-11T01:36:44;-18027.72;;;0.02;100.00
24746;BME280;12845;52.042;6.838;2023-03-11T01:39:10;-18027.59;;;0.01;100.00
24746;BME280;12845;52.042;6.838;2023-03-11T01:41:35;-18027.72;;;0.02;100.00
24746;BME280;12845;52.042;6.838;2023-03-11T01:44:00;-18028.16;;;0.03;100.00
24746;BME280;12845;52.042;6.838;2023-03-11T01:46:38;-18028.41;;;0.04;100.00
24746;BME280;12845;52.042;6.838;2023-03-11T01:49:24;-18028.97;;;0.06;100.00
24746;BME280;12845;52.042;6.838;2023-03-11T01:51:52;-18029.38;;;0.08;100.00
24746;BME280;12845;52.042;6.838;2023-03-11T01:54:21;-18029.94;;;0.10;100.00
24746;BME280;12845;52.042;6.838;2023-03-11T01:56:48;-18030.63;;;0.12;100.00
24746;BME280;12845;52.042;6.838;2023-03-11T01:59:19;-18032.31;;;0.18;100.00
24746;BME280;12845;52.042;6.838;2023-03-11T02:01:54;-18032.44;;;0.19;100.00
24746;BME280;12845;52.042;6.838;2023-03-11T02:04:23;-18032.84;;;0.20;100.00
24746;BME280;12845;52.042;6.838;2023-03-11T02:06:49;-18033.13;;;0.21;100.00
24746;BME280;12845;52.042;6.838;2023-03-11T02:09:15;-18033.00;;;0.21;100.00
24746;BME280;12845;52.042;6.838;2023-03-11T02:11:40;-18032.44;;;0.19;100.00
24746;BME280;12845;52.042;6.838;2023-03-11T02:14:06;-18033.00;;;0.21;100.00
24746;BME280;12845;52.042;6.838;2023-03-11T02:16:33;-18034.38;;;0.26;100.00
24746;BME280;12845;52.042;6.838;2023-03-11T02:19:08;-18032.84;;;0.20;100.00
24746;BME280;12845;52.042;6.838;2023-03-11T02:21:36;-18033.00;;;0.21;100.00
24746;BME280;12845;52.042;6.838;2023-03-11T02:24:13;-18032.44;;;0.19;100.00
24746;BME280;12845;52.042;6.838;2023-03-11T02:29:45;-18031.06;;;0.14;100.00
24746;BME280;12845;52.042;6.838;2023-03-11T02:32:14;-18031.34;;;0.15;100.00
24746;BME280;12845;52.042;6.838;2023-03-11T02:34:40;-18031.34;;;0.15;100.00
24746;BME280;12845;52.042;6.838;2023-03-11T02:37:08;-18031.88;;;0.17;100.00
24746;BME280;12845;52.042;6.838;2023-03-11T02:39:39;-18031.75;;;0.16;100.00
24746;BME280;12845;52.042;6.838;2023-03-11T02:42:09;-18032.03;;;0.17;100.00
24746;BME280;12845;52.042;6.838;2023-03-11T02:44:37;-18030.91;;;0.13;100.00
24746;BME280;12845;52.042;6.838;2023-03-11T02:47:03;-18029.25;;;0.07;100.00
24746;BME280;12845;52.042;6.838;2023-03-11T02:49:29;-18029.94;;;0.10;100.00
24746;BME280;12845;52.042;6.838;2023-03-11T02:51:55;-18030.34;;;0.11;100.00
24746;BME280;12845;52.042;6.838;2023-03-11T02:54:20;-18029.81;;;0.09;100.00
24746;BME280;12845;52.042;6.838;2023-03-11T02:56:46;-18028.84;;;0.06;100.00
24746;BME280;12845;52.042;6.838;2023-03-11T02:59:11;-18028.41;;;0.04;100.00
24746;BME280;12845;52.042;6.838;2023-03-11T03:01:36;-18028.41;;;0.04;100.00
24746;BME280;12845;52.042;6.838;2023-03-11T03:04:02;-18028.16;;;0.03;100.00
24746;BME280;12845;52.042;6.838;2023-03-11T03:06:27;-18028.28;;;0.04;100.00
24746;BME280;12845;52.042;6.838;2023-03-11T03:08:53;-18027.59;;;0.01;100.00
24746;BME280;12845;52.042;6.838;2023-03-11T03:11:19;-18026.47;;;-0.03;100.00
24746;BME280;12845;52.042;6.838;2023-03-11T03:13:44;-18025.50;;;-0.07;100.00
24746;BME280;12845;52.042;6.838;2023-03-11T03:16:10;-18025.66;;;-0.06;100.00
24746;BME280;12845;52.042;6.838;2023-03-11T03:18:35;-18027.59;;;0.01;100.00
24746;BME280;12845;52.042;6.838;2023-03-11T03:21:01;-18027.03;;;-0.01;100.00
24746;BME280;12845;52.042;6.838;2023-03-11T03:23:26;-18027.59;;;0.01;100.00
24746;BME280;12845;52.042;6.838;2023-03-11T03:25:52;-18026.47;;;-0.03;100.00
24746;BME280;12845;52.042;6.838;2023-03-11T03:28:17;-18027.59;;;0.01;100.00
24746;BME280;12845;52.042;6.838;2023-03-11T03:30:43;-18027.03;;;-0.01;100.00
24746;BME280;12845;52.042;6.838;2023-03-11T03:33:08;-18025.94;;;-0.05;100.00
24746;BME280;12845;52.042;6.838;2023-03-11T03:35:34;-18025.50;;;-0.07;100.00
24746;BME280;12845;52.042;6.838;2023-03-11T03:38:00;-18026.06;;;-0.05;100.00
24746;BME280;12845;52.042;6.838;2023-03-11T03:40:25;-18025.50;;;-0.07;100.00
24746;BME280;12845;52.042;6.838;2023-03-11T03:42:51;-18025.66;;;-0.06;100.00
24746;BME280;12845;52.042;6.838;2023-03-11T03:45:16;-18024.94;;;-0.09;100.00
24746;BME280;12845;52.042;6.838;2023-03-11T03:47:42;-18024.53;;;-0.10;100.00
24746;BME280;12845;52.042;6.838;2023-03-11T03:50:09;-18022.75;;;-0.17;100.00
24746;BME280;12845;52.042;6.838;2023-03-11T03:52:36;-18023.16;;;-0.15;100.00
24746;BME280;12845;52.042;6.838;2023-03-11T03:55:03;-18022.31;;;-0.18;100.00
24746;BME280;12845;52.042;6.838;2023-03-11T03:57:29;-18021.75;;;-0.20;100.00
24746;BME280;12845;52.042;6.838;2023-03-11T03:59:54;-18022.31;;;-0.18;100.00
24746;BME280;12845;52.042;6.838;2023-03-11T04:02:20;-18023.16;;;-0.15;100.00
24746;BME280;12845;52.042;6.838;2023-03-11T04:04:45;-18023.44;;;-0.14;100.00
24746;BME280;12845;52.042;6.838;2023-03-11T04:07:11;-18021.75;;;-0.20;100.00
24746;BME280;12845;52.042;6.838;2023-03-11T04:09:40;-18023.16;;;-0.15;100.00
24746;BME280;12845;52.042;6.838;2023-03-11T04:12:06;-18023.56;;;-0.14;100.00
24746;BME280;12845;52.042;6.838;2023-03-11T04:14:32;-18023.00;;;-0.16;100.00
24746;BME280;12845;52.042;6.838;2023-03-11T04:16:58;-18023.16;;;-0.15;100.00
24746;BME280;12845;52.042;6.838;2023-03-11T04:19:23;-18023.16;;;-0.15;100.00
24746;BME280;12845;52.042;6.838;2023-03-11T04:21:49;-18023.97;;;-0.12;100.00
24746;BME280;12845;52.042;6.838;2023-03-11T04:24:17;-18023.28;;;-0.15;100.00
24746;BME280;12845;52.042;6.838;2023-03-11T04:26:43;-18021.91;;;-0.20;100.00
24746;BME280;12845;52.042;6.838;2023-03-11T04:29:08;-18023.44;;;-0.14;100.00
24746;BME280;12845;52.042;6.838;2023-03-11T04:31:36;-18023.28;;;-0.15;100.00
24746;BME280;12845;52.042;6.838;2023-03-11T04:34:02;-18023.28;;;-0.15;100.00
24746;BME280;12845;52.042;6.838;2023-03-11T04:36:27;-18023.97;;;-0.12;100.00
24746;BME280;12845;52.042;6.838;2023-03-11T04:38:54;-18023.72;;;-0.13;100.00
24746;BME280;12845;52.042;6.838;2023-03-11T04:41:20;-18022.47;;;-0.18;100.00
24746;BME280;12845;52.042;6.838;2023-03-11T04:43:46;-18023.84;;;-0.13;100.00
24746;BME280;12845;52.042;6.838;2023-03-11T04:46:11;-18023.72;;;-0.13;100.00
24746;BME280;12845;52.042;6.838;2023-03-11T04:48:37;-18022.75;;;-0.17;100.00
24746;BME280;12845;52.042;6.838;2023-03-11T04:51:02;-18021.75;;;-0.20;100.00
24746;BME280;12845;52.042;6.838;2023-03-11T04:53:28;-18021.63;;;-0.21;100.00
24746;BME280;12845;52.042;6.838;2023-03-11T04:55:56;-18020.66;;;-0.25;100.00
24746;BME280;12845;52.042;6.838;2023-03-11T04:58:22;-18020.66;;;-0.25;100.00
24746;BME280;12845;52.042;6.838;2023-03-11T05:00:47;-18020.25;;;-0.26;100.00
24746;BME280;12845;52.042;6.838;2023-03-11T05:03:13;-18018.84;;;-0.31;100.00
24746;BME280;12845;52.042;6.838;2023-03-11T05:05:41;-18017.75;;;-0.35;100.00
24746;BME280;12845;52.042;6.838;2023-03-11T05:08:09;-18016.38;;;-0.40;100.00
24746;BME280;12845;52.042;6.838;2023-03-11T05:10:34;-18017.06;;;-0.38;100.00
24746;BME280;12845;52.042;6.838;2023-03-11T05:13:00;-18016.09;;;-0.41;100.00
24746;BME280;12845;52.042;6.838;2023-03-11T05:15:26;-18015.66;;;-0.43;100.00
24746;BME280;12845;52.042;6.838;2023-03-11T05:17:53;-18015.94;;;-0.42;100.00
24746;BME280;12845;52.042;6.838;2023-03-11T05:20:21;-18015.25;;;-0.44;100.00
24746;BME280;12845;52.042;6.838;2023-03-11T05:22:47;-18014.69;;;-0.47;100.00
24746;BME280;12845;52.042;6.838;2023-03-11T05:25:13;-18014.00;;;-0.49;100.00
24746;BME280;12845;52.042;6.838;2023-03-11T05:27:38;-18012.63;;;-0.54;100.00
24746;BME280;12845;52.042;6.838;2023-03-11T05:30:04;-18011.66;;;-0.58;100.00
24746;BME280;12845;52.042;6.838;2023-03-11T05:32:30;-18013.19;;;-0.52;100.00
24746;BME280;12845;52.042;6.838;2023-03-11T05:34:58;-18011.94;;;-0.57;100.00
24746;BME280;12845;52.042;6.838;2023-03-11T05:37:24;-18011.66;;;-0.58;100.00
24746;BME280;12845;52.042;6.838;2023-03-11T05:39:51;-18010.97;;;-0.60;100.00
24746;BME280;12845;52.042;6.838;2023-03-11T05:42:16;-18010.25;;;-0.63;100.00
24746;BME280;12845;52.042;6.838;2023-03-11T05:44:42;-18009.28;;;-0.66;100.00
24746;BME280;12845;52.042;6.838;2023-03-11T05:47:07;-18009.56;;;-0.65;100.00
24746;BME280;12845;52.042;6.838;2023-03-11T05:49:33;-18009.84;;;-0.64;100.00
24746;BME280;12845;52.042;6.838;2023-03-11T05:51:58;-18009.16;;;-0.67;100.00
24746;BME280;12845;52.042;6.838;2023-03-11T05:54:23;-18009.28;;;-0.66;100.00
24746;BME280;12845;52.042;6.838;2023-03-11T05:56:49;-18009.28;;;-0.66;100.00
24746;BME280;12845;52.042;6.838;2023-03-11T05:59:15;-18009.16;;;-0.67;100.00
24746;BME280;12845;52.042;6.838;2023-03-11T06:01:42;-18009.44;;;-0.66;100.00
24746;BME280;12845;52.042;6.838;2023-03-11T06:04:08;-18009.00;;;-0.68;100.00
24746;BME280;12845;52.042;6.838;2023-03-11T06:06:37;-18009.28;;;-0.66;100.00
24746;BME280;12845;52.042;6.838;2023-03-11T06:09:15;-18008.75;;;-0.69;100.00
24746;BME280;12845;52.042;6.838;2023-03-11T06:11:57;-18007.34;;;-0.74;100.00
24746;BME280;12845;52.042;6.838;2023-03-11T06:14:23;-18008.19;;;-0.71;100.00
24746;BME280;12845;52.042;6.838;2023-03-11T06:16:48;-18008.19;;;-0.71;100.00
24746;BME280;12845;52.042;6.838;2023-03-11T06:19:14;-18007.34;;;-0.74;100.00
24746;BME280;12845;52.042;6.838;2023-03-11T06:21:39;-18007.63;;;-0.73;100.00
24746;BME280;12845;52.042;6.838;2023-03-11T06:24:05;-18006.94;;;-0.75;100.00
24746;BME280;12845;52.042;6.838;2023-03-11T06:26:30;-18006.38;;;-0.77;100.00
24746;BME280;12845;52.042;6.838;2023-03-11T06:28:56;-18007.06;;;-0.75;100.00
24746;BME280;12845;52.042;6.838;2023-03-11T06:31:25;-18006.09;;;-0.78;100.00
24746;BME280;12845;52.042;6.838;2023-03-11T06:33:52;-18006.09;;;-0.78;100.00
24746;BME280;12845;52.042;6.838;2023-03-11T06:36:18;-18005.97;;;-0.79;100.00
24746;BME280;12845;52.042;6.838;2023-03-11T06:38:45;-18005.28;;;-0.81;100.00
24746;BME280;12845;52.042;6.838;2023-03-11T06:41:11;-18004.84;;;-0.83;100.00
24746;BME280;12845;52.042;6.838;2023-03-11T06:43:37;-18004.03;;;-0.86;100.00
24746;BME280;12845;52.042;6.838;2023-03-11T06:46:10;-18003.59;;;-0.87;100.00
24746;BME280;12845;52.042;6.838;2023-03-11T06:48:37;-18005.41;;;-0.81;100.00
24746;BME280;12845;52.042;6.838;2023-03-11T06:51:02;-18005.28;;;-0.81;100.00
24746;BME280;12845;52.042;6.838;2023-03-11T06:53:29;-18004.72;;;-0.83;100.00
24746;BME280;12845;52.042;6.838;2023-03-11T06:58:41;-18006.53;;;-0.77;100.00
24746;BME280;12845;52.042;6.838;2023-03-11T07:01:22;-18006.53;;;-0.77;100.00
24746;BME280;12845;52.042;6.838;2023-03-11T07:03:49;-18007.06;;;-0.75;100.00
24746;BME280;12845;52.042;6.838;2023-03-11T07:06:20;-18008.31;;;-0.70;100.00
24746;BME280;12845;52.042;6.838;2023-03-11T07:08:47;-18009.00;;;-0.68;100.00
24746;BME280;12845;52.042;6.838;2023-03-11T07:11:17;-18009.56;;;-0.65;100.00
24746;BME280;12845;52.042;6.838;2023-03-11T07:13:44;-18010.53;;;-0.62;100.00
24746;BME280;12845;52.042;6.838;2023-03-11T07:18:36;-18012.63;;;-0.54;100.00
24746;BME280;12845;52.042;6.838;2023-03-11T07:21:03;-18013.19;;;-0.52;100.00
24746;BME280;12845;52.042;6.838;2023-03-11T07:23:29;-18013.88;;;-0.50;100.00
24746;BME280;12845;52.042;6.838;2023-03-11T07:25:54;-18014.28;;;-0.48;100.00
24746;BME280;12845;52.042;6.838;2023-03-11T07:28:21;-18015.41;;;-0.44;100.00
24746;BME280;12845;52.042;6.838;2023-03-11T07:30:47;-18016.63;;;-0.39;100.00
24746;BME280;12845;52.042;6.838;2023-03-11T07:33:13;-18017.88;;;-0.35;100.00
24746;BME280;12845;52.042;6.838;2023-03-11T07:35:38;-18018.84;;;-0.31;100.00
24746;BME280;12845;52.042;6.838;2023-03-11T07:38:06;-18020.94;;;-0.24;100.00
24746;BME280;12845;52.042;6.838;2023-03-11T07:40:33;-18021.22;;;-0.22;100.00
24746;BME280;12845;52.042;6.838;2023-03-11T07:42:58;-18020.94;;;-0.24;100.00
24746;BME280;12845;52.042;6.838;2023-03-11T07:45:24;-18022.59;;;-0.17;100.00
24746;BME280;12845;52.042;6.838;2023-03-11T07:47:49;-18023.44;;;-0.14;100.00
24746;BME280;12845;52.042;6.838;2023-03-11T07:50:15;-18023.97;;;-0.12;100.00
24746;BME280;12845;52.042;6.838;2023-03-11T07:52:42;-18023.97;;;-0.12;100.00
24746;BME280;12845;52.042;6.838;2023-03-11T07:55:07;-18024.94;;;-0.09;100.00
24746;BME280;12845;52.042;6.838;2023-03-11T07:57:33;-18026.19;;;-0.04;100.00
24746;BME280;12845;52.042;6.838;2023-03-11T08:00:02;-18027.31;;;0.00;100.00
24746;BME280;12845;52.042;6.838;2023-03-11T08:02:27;-18028.97;;;0.06;100.00
24746;BME280;12845;52.042;6.838;2023-03-11T08:04:54;-18028.00;;;0.03;100.00
24746;BME280;12845;52.042;6.838;2023-03-11T08:07:23;-18028.00;;;0.03;100.00
24746;BME280;12845;52.042;6.838;2023-03-11T08:09:48;-18030.34;;;0.11;100.00
24746;BME280;12845;52.042;6.838;2023-03-11T08:12:14;-18030.09;;;0.10;100.00
24746;BME280;12845;52.042;6.838;2023-03-11T08:14:43;-18033.53;;;0.23;100.00
24746;BME280;12845;52.042;6.838;2023-03-11T08:17:09;-18032.44;;;0.19;100.00
24746;BME280;12845;52.042;6.838;2023-03-11T08:19:34;-18033.53;;;0.23;100.00
24746;BME280;12845;52.042;6.838;2023-03-11T08:22:01;-18037.28;;;0.37;100.00
24746;BME280;12845;52.042;6.838;2023-03-11T08:24:27;-18037.97;;;0.39;100.00
24746;BME280;12845;52.042;6.838;2023-03-11T08:26:53;-18039.22;;;0.44;100.00
24746;BME280;12845;52.042;6.838;2023-03-11T08:29:19;-18037.84;;;0.39;100.00
24746;BME280;12845;52.042;6.838;2023-03-11T08:31:45;-18038.53;;;0.41;100.00
24746;BME280;12845;52.042;6.838;2023-03-11T08:34:11;-18040.19;;;0.48;100.00
24746;BME280;12845;52.042;6.838;2023-03-11T08:36:36;-18041.44;;;0.52;100.00
24746;BME280;12845;52.042;6.838;2023-03-11T08:39:02;-18043.50;;;0.60;100.00
24746;BME280;12845;52.042;6.838;2023-03-11T08:41:28;-18044.63;;;0.64;100.00
24746;BME280;12845;52.042;6.838;2023-03-11T08:43:53;-18045.47;;;0.67;100.00
24746;BME280;12845;52.042;6.838;2023-03-11T08:48:47;-18049.88;;;0.83;100.00
24746;BME280;12845;52.042;6.838;2023-03-11T08:51:13;-18050.84;;;0.87;100.00
24746;BME280;12845;52.042;6.838;2023-03-11T08:53:38;-18051.81;;;0.90;100.00
24746;BME280;12845;52.042;6.838;2023-03-11T08:56:04;-18053.22;;;0.96;100.00
24746;BME280;12845;52.042;6.838;2023-03-11T08:58:33;-18054.31;;;1.00;100.00
24746;BME280;12845;52.042;6.838;2023-03-11T09:00:59;-18053.91;;;0.98;100.00
24746;BME280;12845;52.042;6.838;2023-03-11T09:03:24;-18055.56;;;1.04;100.00
24746;BME280;12845;52.042;6.838;2023-03-11T09:05:56;-18054.03;;;0.99;100.00
24746;BME280;12845;52.042;6.838;2023-03-11T09:08:22;-18058.06;;;1.13;100.00
24746;BME280;12845;52.042;6.838;2023-03-11T09:10:47;-18059.03;;;1.17;100.00
24746;BME280;12845;52.042;6.838;2023-03-11T09:13:12;-18060.00;;;1.21;100.00
24746;BME280;12845;52.042;6.838;2023-03-11T09:15:38;-18062.75;;;1.31;100.00
24746;BME280;12845;52.042;6.838;2023-03-11T09:18:04;-18062.06;;;1.28;100.00
24746;BME280;12845;52.042;6.838;2023-03-11T09:20:29;-18066.22;;;1.44;100.00
24746;BME280;12845;52.042;6.838;2023-03-11T09:22:55;-18065.81;;;1.42;100.00
24746;BME280;12845;52.042;6.838;2023-03-11T09:25:26;-18066.63;;;1.45;100.00
24746;BME280;12845;52.042;6.838;2023-03-11T09:27:51;-18068.16;;;1.51;100.00
24746;BME280;12845;52.042;6.838;2023-03-11T09:30:17;-18070.50;;;1.60;100.00
24746;BME280;12845;52.042;6.838;2023-03-11T09:32:42;-18074.66;;;1.75;100.00
24746;BME280;12845;52.042;6.838;2023-03-11T09:35:10;-18076.19;;;1.80;100.00
24746;BME280;12845;52.042;6.838;2023-03-11T09:37:36;-18076.47;;;1.82;100.00
24746;BME280;12845;52.042;6.838;2023-03-11T09:40:01;-18076.59;;;1.82;100.00
24746;BME280;12845;52.042;6.838;2023-03-11T09:43:15;-18079.09;;;1.91;100.00
24746;BME280;12845;52.042;6.838;2023-03-11T09:45:27;-18077.84;;;1.87;100.00
24746;BME280;12845;52.042;6.838;2023-03-11T09:51:38;-18080.47;;;1.96;100.00
24746;BME280;12845;52.042;6.838;2023-03-11T09:53:41;-18080.47;;;1.96;100.00
24746;BME280;12845;52.042;6.838;2023-03-11T09:56:09;-18080.75;;;1.97;100.00
24746;BME280;12845;52.042;6.838;2023-03-11T10:01:24;-18082.56;;;2.04;100.00
24746;BME280;12845;52.042;6.838;2023-03-11T10:03:53;-18082.84;;;2.05;100.00
24746;BME280;12845;52.042;6.838;2023-03-11T10:06:25;-18085.75;;;2.16;100.00
24746;BME280;12845;52.042;6.838;2023-03-11T10:15:12;-18090.56;;;2.34;100.00
24746;BME280;12845;52.042;6.838;2023-03-11T10:23:14;-18098.88;;;2.64;100.00
24746;BME280;12845;52.042;6.838;2023-03-11T10:26:11;-18100.94;;;2.72;100.00
24746;BME280;12845;52.042;6.838;2023-03-11T10:28:48;-18100.53;;;2.70;100.00
24746;BME280;12845;52.042;6.838;2023-03-11T10:31:20;-18102.19;;;2.77;100.00
24746;BME280;12845;52.042;6.838;2023-03-11T10:36:18;-18108.97;;;3.02;100.00
24746;BME280;12845;52.042;6.838;2023-03-11T10:38:49;-18111.31;;;3.10;100.00
24746;BME280;12845;52.042;6.838;2023-03-11T10:44:15;-18111.31;;;3.10;100.00
24746;BME280;12845;52.042;6.838;2023-03-11T10:46:43;-18113.38;;;3.18;100.00
24746;BME280;12845;52.042;6.838;2023-03-11T10:49:14;-18112.00;;;3.13;100.00
24746;BME280;12845;52.042;6.838;2023-03-11T10:51:41;-18115.47;;;3.26;100.00
24746;BME280;12845;52.042;6.838;2023-03-11T10:54:21;-18115.88;;;3.27;100.00
24746;BME280;12845;52.042;6.838;2023-03-11T10:56:53;-18114.78;;;3.23;100.00
24746;BME280;12845;52.042;6.838;2023-03-11T10:59:25;-18115.59;;;3.26;100.00
24746;BME280;12845;52.042;6.838;2023-03-11T11:01:59;-18117.00;;;3.31;100.00
24746;BME280;12845;52.042;6.838;2023-03-11T11:04:30;-18118.09;;;3.35;100.00
24746;BME280;12845;52.042;6.838;2023-03-11T11:07:19;-18117.81;;;3.34;100.00
24746;BME280;12845;52.042;6.838;2023-03-11T11:09:45;-18120.16;;;3.43;100.00
24746;BME280;12845;52.042;6.838;2023-03-11T11:12:15;-18122.22;;;3.51;100.00
24746;BME280;12845;52.042;6.838;2023-03-11T11:14:47;-18121.28;;;3.47;100.00
24746;BME280;12845;52.042;6.838;2023-03-11T11:17:29;-18120.31;;;3.44;100.00
24746;BME280;12845;52.042;6.838;2023-03-11T11:19:56;-18124.44;;;3.59;100.00
24746;BME280;12845;52.042;6.838;2023-03-11T11:22:24;-18125.13;;;3.61;100.00
24746;BME280;12845;52.042;6.838;2023-03-11T11:24:52;-18128.03;;;3.72;100.00
24746;BME280;12845;52.042;6.838;2023-03-11T11:27:23;-18128.19;;;3.73;100.00
24746;BME280;12845;52.042;6.838;2023-03-11T11:30:21;-18130.66;;;3.82;100.00
24746;BME280;12845;52.042;6.838;2023-03-11T11:32:47;-18132.59;;;3.89;100.00
24746;BME280;12845;52.042;6.838;2023-03-11T11:35:15;-18133.00;;;3.91;100.00
24746;BME280;12845;52.042;6.838;2023-03-11T11:37:46;-18133.28;;;3.92;100.00
24746;BME280;12845;52.042;6.838;2023-03-11T11:42:52;-18134.41;;;3.96;100.00
24746;BME280;12845;52.042;6.838;2023-03-11T11:45:27;-18138.41;;;4.11;100.00
24746;BME280;12845;52.042;6.838;2023-03-11T11:47:58;-18138.00;;;4.09;100.00
24746;BME280;12845;52.042;6.838;2023-03-11T11:50:31;-18136.06;;;4.02;100.00
24746;BME280;12845;52.042;6.838;2023-03-11T11:55:47;-18138.81;;;4.12;100.00
24746;BME280;12845;52.042;6.838;2023-03-11T11:58:13;-18139.09;;;4.13;100.00
24746;BME280;12845;52.042;6.838;2023-03-11T12:09:13;-18146.28;;;4.40;100.00
24746;BME280;12845;52.042;6.838;2023-03-11T12:17:21;-18146.28;;;4.40;100.00
24746;BME280;12845;52.042;6.838;2023-03-11T12:19:56;-18148.91;;;4.49;100.00
24746;BME280;12845;52.042;6.838;2023-03-11T12:25:50;-18152.34;;;4.62;100.00
24746;BME280;12845;52.042;6.838;2023-03-11T12:30:59;-18149.31;;;4.51;100.00
24746;BME280;12845;52.042;6.838;2023-03-11T12:33:42;-18147.25;;;4.43;100.00
24746;BME280;12845;52.042;6.838;2023-03-11T12:36:30;-18149.44;;;4.51;100.00
24746;BME280;12845;52.042;6.838;2023-03-11T12:38:57;-18153.59;;;4.67;100.00
24746;BME280;12845;52.042;6.838;2023-03-11T12:41:36;-18156.78;;;4.79;100.00
24746;BME280;12845;52.042;6.838;2023-03-11T12:44:30;-18157.59;;;4.82;100.00
24746;BME280;12845;52.042;6.838;2023-03-11T12:47:00;-18162.56;;;5.00;100.00
24746;BME280;12845;52.042;6.838;2023-03-11T12:50:35;-18164.78;;;5.08;100.00
24746;BME280;12845;52.042;6.838;2023-03-11T12:52:53;-18167.69;;;5.19;100.00
24746;BME280;12845;52.042;6.838;2023-03-11T12:55:23;-18170.28;;;5.29;100.00
24746;BME280;12845;52.042;6.838;2023-03-11T12:58:00;-18166.84;;;5.16;100.00
24746;BME280;12845;52.042;6.838;2023-03-11T13:01:28;-18170.28;;;5.29;100.00
24746;BME280;12845;52.042;6.838;2023-03-11T13:03:57;-18171.53;;;5.33;100.00
24746;BME280;12845;52.042;6.838;2023-03-11T13:09:19;-18175.25;;;5.47;100.00
24746;BME280;12845;52.042;6.838;2023-03-11T13:11:47;-18178.03;;;5.57;100.00
24746;BME280;12845;52.042;6.838;2023-03-11T13:14:34;-18180.78;;;5.68;100.00
24746;BME280;12845;52.042;6.838;2023-03-11T13:17:25;-18187.97;;;5.94;100.00
24746;BME280;12845;52.042;6.838;2023-03-11T13:20:07;-18187.81;;;5.94;100.00
24746;BME280;12845;52.042;6.838;2023-03-11T13:25:34;-18199.41;;;6.37;100.00
24746;BME280;12845;52.042;6.838;2023-03-11T13:36:44;-18207.81;;;6.68;100.00
24746;BME280;12845;52.042;6.838;2023-03-11T13:39:31;-18204.22;;;6.54;100.00
24746;BME280;12845;52.042;6.838;2023-03-11T13:42:01;-18199.00;;;6.35;100.00
24746;BME280;12845;52.042;6.838;2023-03-11T13:44:35;-18203.69;;;6.52;100.00
24746;BME280;12845;52.042;6.838;2023-03-11T13:47:08;-18207.28;;;6.66;100.00
24746;BME280;12845;52.042;6.838;2023-03-11T13:50:04;-18216.09;;;6.98;100.00
24746;BME280;12845;52.042;6.838;2023-03-11T13:52:51;-18224.63;;;7.30;100.00
24746;BME280;12845;52.042;6.838;2023-03-11T13:55:21;-18222.28;;;7.21;100.00
24746;BME280;12845;52.042;6.838;2023-03-11T13:57:54;-18221.06;;;7.17;100.00
24746;BME280;12845;52.042;6.838;2023-03-11T14:00:25;-18221.75;;;7.19;100.00
24746;BME280;12845;52.042;6.838;2023-03-11T14:03:01;-18226.69;;;7.38;100.00
24746;BME280;12845;52.042;6.838;2023-03-11T14:05:35;-18223.41;;;7.26;100.00
24746;BME280;12845;52.042;6.838;2023-03-11T14:08:32;-18227.66;;;7.41;100.00